createdAt,value
2022-10-12T00:01:10.027Z,19.30
2022-10-12T00:03:38.756Z,17.67
2022-10-12T00:06:09.317Z,21.55
2022-10-12T00:08:38.987Z,16.38
2022-10-12T00:11:09.122Z,13.15
2022-10-12T00:13:36.684Z,15.73
2022-10-12T00:16:07.919Z,19.75
2022-10-12T00:18:35.853Z,18.83
2022-10-12T00:21:14.161Z,16.70
2022-10-12T00:23:44.059Z,18.70
2022-10-12T00:26:23.401Z,18.40
2022-10-12T00:29:00.283Z,19.17
2022-10-12T00:31:30.393Z,19.42
2022-10-12T00:34:02.222Z,17.63
2022-10-12T00:36:34.532Z,16.15
2022-10-12T00:39:05.407Z,17.13
2022-10-12T00:41:41.210Z,16.63
2022-10-12T00:44:34.915Z,18.13
2022-10-12T00:47:17.620Z,20.13
2022-10-12T00:49:57.605Z,13.65
2022-10-12T00:52:34.629Z,14.13
2022-10-12T00:55:03.086Z,18.45
2022-10-12T00:57:30.385Z,23.02
2022-10-12T01:00:04.326Z,20.58
2022-10-12T01:02:34.373Z,23.42
2022-10-12T01:05:03.017Z,16.90
2022-10-12T01:09:57.936Z,18.83
2022-10-12T01:12:27.093Z,18.83
2022-10-12T01:14:55.613Z,19.17
2022-10-12T01:20:40.295Z,15.73
2022-10-12T01:23:45.194Z,21.35
2022-10-12T01:27:03.183Z,18.20
2022-10-12T01:30:07.308Z,20.73
2022-10-12T01:32:39.388Z,20.90
2022-10-12T01:36:04.564Z,14.15
2022-10-12T01:39:05.209Z,17.27
2022-10-12T01:41:37.023Z,17.27
2022-10-12T01:44:04.822Z,17.55
2022-10-12T01:46:32.040Z,16.70
2022-10-12T01:49:02.176Z,19.23
2022-10-12T01:52:07.671Z,16.42
2022-10-12T01:55:10.159Z,17.08
2022-10-12T01:58:35.301Z,16.88
2022-10-12T02:01:17.615Z,13.93
2022-10-12T02:04:10.855Z,21.58
2022-10-12T02:06:47.321Z,18.73
2022-10-12T02:09:25.795Z,16.02
2022-10-12T02:11:57.628Z,17.20
2022-10-12T02:14:35.208Z,20.80
2022-10-12T02:17:09.715Z,21.45
2022-10-12T02:19:44.890Z,17.73
2022-10-12T02:22:15.072Z,18.67
2022-10-12T02:24:47.560Z,25.23
2022-10-12T02:27:18.324Z,17.48
2022-10-12T02:29:48.021Z,18.73
2022-10-12T02:32:34.299Z,19.23
2022-10-12T02:35:09.293Z,20.08
2022-10-12T02:37:39.578Z,16.58
2022-10-12T02:40:14.912Z,18.05
2022-10-12T02:43:11.070Z,21.13
2022-10-12T02:45:43.989Z,19.08
2022-10-12T02:48:17.736Z,14.93
2022-10-12T02:50:48.744Z,19.75
2022-10-12T02:53:17.339Z,22.90
2022-10-12T02:58:26.709Z,23.05
2022-10-12T03:00:54.015Z,21.48
2022-10-12T03:03:21.451Z,20.55
2022-10-12T03:05:48.755Z,22.23
2022-10-12T03:08:16.003Z,22.88
2022-10-12T03:10:43.426Z,21.05
2022-10-12T03:13:10.773Z,22.75
2022-10-12T03:15:38.243Z,25.35
2022-10-12T03:18:05.626Z,20.10
2022-10-12T03:20:33.020Z,22.80
2022-10-12T03:23:00.342Z,20.75
2022-10-12T03:25:27.553Z,21.20
2022-10-12T03:27:54.838Z,19.80
2022-10-12T03:30:22.257Z,21.10
2022-10-12T03:32:49.597Z,21.67
2022-10-12T03:35:17.726Z,20.42
2022-10-12T03:37:45.061Z,19.20
2022-10-12T03:40:13.624Z,20.67
2022-10-12T03:42:41.056Z,19.58
2022-10-12T03:45:09.381Z,19.63
2022-10-12T03:47:38.221Z,20.00
2022-10-12T03:50:06.406Z,20.03
2022-10-12T03:52:33.763Z,22.20
2022-10-12T03:55:01.038Z,23.45
2022-10-12T03:57:28.428Z,23.42
2022-10-12T03:59:55.726Z,19.75
2022-10-12T04:02:23.065Z,23.20
2022-10-12T04:04:50.416Z,23.02
2022-10-12T04:07:17.789Z,20.08
2022-10-12T04:09:45.192Z,21.60
2022-10-12T04:12:12.641Z,23.55
2022-10-12T04:14:40.476Z,22.05
2022-10-12T04:17:07.953Z,21.67
2022-10-12T04:19:35.388Z,23.88
2022-10-12T04:22:02.668Z,19.92
2022-10-12T04:24:30.096Z,23.02
2022-10-12T04:26:57.427Z,23.77
2022-10-12T04:29:24.639Z,19.95
2022-10-12T04:31:52.057Z,21.80
2022-10-12T04:34:20.242Z,21.17
2022-10-12T04:36:48.083Z,23.85
2022-10-12T04:39:17.419Z,21.00
2022-10-12T04:41:44.724Z,20.38
2022-10-12T04:44:12.015Z,19.07
2022-10-12T04:46:39.240Z,16.88
2022-10-12T04:49:06.595Z,19.52
2022-10-12T04:51:33.931Z,17.77
2022-10-12T04:54:01.160Z,17.80
2022-10-12T04:56:28.465Z,22.07
2022-10-12T04:58:55.853Z,24.00
2022-10-12T05:01:23.309Z,17.58
2022-10-12T05:03:50.634Z,17.13
2022-10-12T05:06:17.942Z,18.02
2022-10-12T05:08:45.218Z,18.75
2022-10-12T05:11:12.606Z,18.50
2022-10-12T05:13:39.889Z,29.30
2022-10-12T05:16:07.461Z,21.95
2022-10-12T05:18:34.801Z,22.10
2022-10-12T05:21:02.117Z,24.48
2022-10-12T05:23:29.545Z,24.40
2022-10-12T05:25:57.132Z,23.83
2022-10-12T05:28:24.863Z,24.05
2022-10-12T05:30:53.442Z,22.60
2022-10-12T05:33:20.738Z,21.25
2022-10-12T05:35:53.353Z,23.63
2022-10-12T05:38:23.838Z,22.85
2022-10-12T05:40:51.104Z,22.80
2022-10-12T05:43:18.479Z,20.70
2022-10-12T05:45:45.762Z,20.65
2022-10-12T05:48:13.025Z,22.00
2022-10-12T05:50:40.374Z,20.77
2022-10-12T05:53:07.592Z,20.85
2022-10-12T05:55:34.902Z,19.85
2022-10-12T05:58:02.219Z,19.30
2022-10-12T06:00:29.571Z,23.07
2022-10-12T06:02:56.955Z,19.23
2022-10-12T06:05:25.179Z,28.58
2022-10-12T06:07:52.448Z,22.80
2022-10-12T06:10:19.903Z,18.67
2022-10-12T06:12:47.358Z,22.90
2022-10-12T06:15:14.663Z,24.80
2022-10-12T06:17:41.910Z,23.80
2022-10-12T06:20:10.331Z,21.27
2022-10-12T06:22:37.728Z,28.08
2022-10-12T06:25:05.933Z,28.83
2022-10-12T06:27:33.365Z,26.63
2022-10-12T06:30:00.695Z,24.90
2022-10-12T06:32:27.971Z,24.50
2022-10-12T06:34:55.592Z,21.35
2022-10-12T06:37:48.107Z,20.23
2022-10-12T06:40:11.005Z,20.10
2022-10-12T06:42:38.476Z,23.63
2022-10-12T06:45:06.651Z,24.33
2022-10-12T06:47:34.572Z,20.55
2022-10-12T06:50:01.892Z,19.60
2022-10-12T06:52:29.429Z,20.23
2022-10-12T06:54:56.816Z,22.08
2022-10-12T06:57:24.439Z,27.92
2022-10-12T06:59:51.790Z,24.08
2022-10-12T07:02:19.088Z,20.67
2022-10-12T07:04:53.886Z,20.95
2022-10-12T07:07:21.161Z,21.25
2022-10-12T07:09:49.010Z,20.55
2022-10-12T07:12:16.295Z,23.10
2022-10-12T07:14:43.614Z,18.92
2022-10-12T07:17:10.886Z,17.55
2022-10-12T07:19:38.299Z,20.17
2022-10-12T07:22:05.756Z,20.75
2022-10-12T07:24:36.545Z,15.65
2022-10-12T07:27:07.958Z,19.35
2022-10-12T07:29:38.076Z,20.60
2022-10-12T07:32:12.438Z,15.90
2022-10-12T07:34:39.763Z,17.58
2022-10-12T07:37:07.221Z,17.27
2022-10-12T07:39:34.631Z,24.08
2022-10-12T07:42:09.271Z,20.33
2022-10-12T07:44:38.921Z,21.75
2022-10-12T07:47:06.283Z,14.57
2022-10-12T07:49:33.623Z,16.45
2022-10-12T07:52:00.856Z,20.95
2022-10-12T07:54:30.308Z,15.73
2022-10-12T07:56:57.636Z,15.27
2022-10-12T07:59:25.142Z,15.32
2022-10-12T08:01:53.153Z,12.80
2022-10-12T08:04:20.575Z,8.93
2022-10-12T08:06:47.841Z,20.95
2022-10-12T08:09:15.346Z,12.80
2022-10-12T08:11:43.078Z,15.63
2022-10-12T08:14:16.494Z,13.85
2022-10-12T08:16:45.322Z,15.23
2022-10-12T08:19:13.311Z,11.32
2022-10-12T08:21:42.620Z,20.67
2022-10-12T08:24:11.687Z,14.00
2022-10-12T08:26:39.703Z,20.55
2022-10-12T08:29:08.436Z,16.65
2022-10-12T08:31:37.652Z,15.32
2022-10-12T08:34:05.553Z,12.82
2022-10-12T08:36:33.274Z,14.52
2022-10-12T08:39:00.621Z,13.95
2022-10-12T08:42:00.706Z,14.00
2022-10-12T08:45:02.938Z,21.58
2022-10-12T08:47:51.649Z,10.88
2022-10-12T08:50:34.106Z,20.10
2022-10-12T08:53:30.340Z,17.77
2022-10-12T08:55:59.170Z,15.35
2022-10-12T08:58:39.119Z,13.50
2022-10-12T09:01:26.143Z,16.50
2022-10-12T09:04:21.520Z,12.77
2022-10-12T09:07:10.842Z,12.57
2022-10-12T09:09:57.161Z,10.38
2022-10-12T09:12:37.644Z,17.63
2022-10-12T09:15:18.021Z,13.52
2022-10-12T09:17:58.254Z,19.23
2022-10-12T09:20:59.196Z,13.30
2022-10-12T09:23:32.004Z,16.00
2022-10-12T09:26:16.741Z,11.65
2022-10-12T09:28:58.427Z,10.80
2022-10-12T09:32:02.766Z,13.27
2022-10-12T09:34:30.509Z,15.25
2022-10-12T09:36:58.215Z,14.82
2022-10-12T09:39:35.577Z,15.48
2022-10-12T09:42:03.319Z,13.55
2022-10-12T09:44:52.780Z,13.23
2022-10-12T09:47:31.549Z,13.68
2022-10-12T09:50:07.271Z,21.58
2022-10-12T09:52:44.804Z,18.95
2022-10-12T09:58:02.854Z,11.02
2022-10-12T10:00:34.565Z,15.98
2022-10-12T10:03:03.151Z,15.18
2022-10-12T10:08:23.611Z,14.68
2022-10-12T10:11:01.700Z,13.82
2022-10-12T10:13:32.558Z,13.75
2022-10-12T10:16:11.500Z,17.88
2022-10-12T10:18:49.436Z,17.25
2022-10-12T10:21:43.340Z,26.52
2022-10-12T10:24:27.556Z,13.13
2022-10-12T10:27:00.277Z,13.38
2022-10-12T10:29:41.824Z,20.63
2022-10-12T10:32:27.018Z,13.90
2022-10-12T10:35:21.451Z,18.67
2022-10-12T10:37:55.778Z,17.40
2022-10-12T10:40:29.223Z,14.77
2022-10-12T10:43:18.406Z,16.60
2022-10-12T10:45:54.885Z,13.38
2022-10-12T10:48:56.592Z,16.45
2022-10-12T10:52:00.217Z,15.90
2022-10-12T10:54:41.093Z,17.33
2022-10-12T10:57:19.248Z,12.32
2022-10-12T11:00:09.289Z,12.63
2022-10-12T11:03:24.148Z,18.52
2022-10-12T11:06:35.331Z,17.23
2022-10-12T11:09:13.180Z,11.95
2022-10-12T11:11:44.406Z,18.33
2022-10-12T11:14:19.692Z,13.27
2022-10-12T11:17:08.553Z,13.23
2022-10-12T11:19:49.467Z,12.23
2022-10-12T11:22:29.238Z,11.80
2022-10-12T11:25:26.203Z,18.08
2022-10-12T11:46:38.416Z,13.57
2022-10-12T11:49:28.212Z,18.20
2022-10-12T11:52:01.324Z,16.10
2022-10-12T11:54:52.936Z,14.85
2022-10-12T11:57:37.390Z,12.93
2022-10-12T12:00:24.079Z,18.67
2022-10-12T12:03:15.450Z,13.82
2022-10-12T12:05:44.232Z,23.88
2022-10-12T12:08:41.737Z,14.23
2022-10-12T12:11:30.809Z,14.48
2022-10-12T12:14:28.764Z,12.70
2022-10-12T12:17:21.978Z,14.75
2022-10-12T12:20:46.751Z,19.05
2022-10-12T12:23:40.969Z,16.35
2022-10-12T12:26:16.113Z,17.70
2022-10-12T12:28:51.594Z,17.00
2022-10-12T12:31:24.872Z,24.75
2022-10-12T12:34:14.727Z,16.25
2022-10-12T12:36:52.258Z,30.60
2022-10-12T12:40:10.660Z,20.10
2022-10-12T12:42:38.190Z,16.10
2022-10-12T12:45:33.688Z,20.40
2022-10-12T12:48:11.678Z,18.83
2022-10-12T12:50:41.748Z,21.98
2022-10-12T12:53:22.083Z,14.10
2022-10-12T12:56:12.985Z,19.27
2022-10-12T12:58:55.581Z,20.20
2022-10-12T13:01:22.852Z,24.90
2022-10-12T13:04:23.103Z,19.83
2022-10-12T13:07:17.595Z,17.83
2022-10-12T13:10:08.243Z,18.52
2022-10-12T13:13:09.426Z,20.55
2022-10-12T13:16:00.569Z,19.08
2022-10-12T13:19:00.760Z,17.35
2022-10-12T13:21:39.157Z,19.90
2022-10-12T13:26:54.403Z,19.27
2022-10-12T13:29:59.448Z,18.95
2022-10-12T13:33:07.791Z,21.30
2022-10-12T13:36:00.115Z,16.75
2022-10-12T13:38:30.270Z,17.40
2022-10-12T13:41:11.468Z,36.28
2022-10-12T13:44:06.732Z,15.95
2022-10-12T13:46:44.712Z,23.88
2022-10-12T13:49:24.744Z,18.10
2022-10-12T13:52:16.315Z,21.35
2022-10-12T13:54:47.796Z,25.02
2022-10-12T13:57:33.164Z,21.27
2022-10-12T14:00:16.720Z,20.58
2022-10-12T14:03:05.815Z,26.60
2022-10-12T14:05:34.212Z,36.25
2022-10-12T14:08:26.233Z,31.00
2022-10-12T14:10:57.797Z,24.83
2022-10-12T14:13:31.956Z,26.60
2022-10-12T14:16:05.270Z,24.10
2022-10-12T14:18:45.000Z,22.88
2022-10-12T14:21:25.914Z,25.55
2022-10-12T14:24:06.968Z,23.02
2022-10-12T14:26:42.741Z,29.05
2022-10-12T14:29:45.596Z,27.67
2022-10-12T14:32:13.726Z,28.85
2022-10-12T14:35:03.976Z,32.80
2022-10-12T14:37:31.828Z,27.23
2022-10-12T14:40:28.628Z,26.38
2022-10-12T14:43:13.826Z,27.63
2022-10-12T14:45:41.416Z,27.48
2022-10-12T14:48:20.874Z,26.00
2022-10-12T14:50:48.369Z,29.00
2022-10-12T14:53:16.610Z,31.25
2022-10-12T14:55:44.657Z,30.20
2022-10-12T14:58:19.728Z,27.52
2022-10-12T15:00:47.298Z,28.40
2022-10-12T15:03:18.237Z,30.93
2022-10-12T15:05:45.636Z,25.17
2022-10-12T15:08:12.997Z,30.50
2022-10-12T15:10:40.426Z,27.38
2022-10-12T15:13:07.736Z,39.33
2022-10-12T15:15:47.142Z,25.52
2022-10-12T15:18:14.910Z,30.25
2022-10-12T15:20:48.287Z,30.40
2022-10-12T15:23:16.845Z,28.15
2022-10-12T15:25:55.098Z,26.98
2022-10-12T15:28:29.959Z,24.30
2022-10-12T15:31:17.535Z,49.08
2022-10-12T15:33:46.796Z,26.52
2022-10-12T15:36:14.118Z,28.90
2022-10-12T15:38:41.412Z,26.25
2022-10-12T15:41:21.091Z,24.80
2022-10-12T15:43:48.473Z,31.10
2022-10-12T15:46:16.652Z,31.13
2022-10-12T15:48:46.369Z,21.92
2022-10-12T15:51:22.834Z,30.43
2022-10-12T15:53:53.484Z,26.57
2022-10-12T15:56:22.058Z,25.77
2022-10-12T15:58:49.564Z,29.05
2022-10-12T16:01:20.277Z,25.75
2022-10-12T16:03:49.318Z,26.75
2022-10-12T16:06:17.214Z,29.85
2022-10-12T16:08:44.588Z,25.52
2022-10-12T16:11:16.103Z,26.85
2022-10-12T16:13:49.998Z,28.10
2022-10-12T16:16:21.371Z,32.10
2022-10-12T16:18:48.954Z,28.88
2022-10-12T16:21:16.767Z,33.90
2022-10-12T16:23:44.210Z,29.40
2022-10-12T16:26:17.584Z,38.30
2022-10-12T16:28:45.452Z,29.02
2022-10-12T16:31:17.922Z,32.60
2022-10-12T16:33:45.990Z,31.15
2022-10-12T16:36:15.937Z,30.05
2022-10-12T16:38:44.523Z,30.20
2022-10-12T16:41:17.314Z,31.38
2022-10-12T16:43:45.089Z,31.90
2022-10-12T16:46:12.563Z,32.38
2022-10-12T16:48:39.990Z,41.40
2022-10-12T16:51:13.368Z,32.63
2022-10-12T16:53:42.491Z,36.30
2022-10-12T16:56:10.086Z,32.50
2022-10-12T16:58:37.622Z,33.40
2022-10-12T17:01:13.732Z,31.53
2022-10-12T17:03:41.583Z,32.55
2022-10-12T17:06:10.639Z,32.58
2022-10-12T17:08:39.501Z,31.80
2022-10-12T17:11:13.646Z,31.85
2022-10-12T17:13:46.591Z,29.45
2022-10-12T17:16:37.452Z,32.85
2022-10-12T17:19:05.252Z,34.92
2022-10-12T17:21:32.958Z,31.70
2022-10-12T17:24:01.538Z,42.20
2022-10-12T17:26:29.337Z,37.97
2022-10-12T17:28:56.756Z,36.10
2022-10-12T17:31:24.231Z,37.97
2022-10-12T17:33:51.677Z,35.25
2022-10-12T17:36:19.014Z,37.92
2022-10-12T17:38:46.511Z,36.00
2022-10-12T17:41:13.856Z,35.40
2022-10-12T17:43:41.350Z,38.47
2022-10-12T17:46:08.635Z,39.20
2022-10-12T17:48:36.063Z,40.58
2022-10-12T17:51:09.787Z,40.30
2022-10-12T17:53:43.221Z,36.67
2022-10-12T17:56:14.431Z,35.28
2022-10-12T17:58:42.806Z,35.25
2022-10-12T18:01:16.449Z,40.20
2022-10-12T18:03:46.625Z,37.92
2022-10-12T18:06:18.777Z,37.53
2022-10-12T18:08:46.517Z,49.20
2022-10-12T18:11:15.499Z,40.17
2022-10-12T18:13:48.295Z,40.38
2022-10-12T18:16:19.239Z,40.90
2022-10-12T18:18:50.789Z,39.45
2022-10-12T18:21:20.966Z,41.47
2022-10-12T18:23:49.684Z,46.70
2022-10-12T18:26:22.124Z,40.05
2022-10-12T18:29:01.095Z,39.17
2022-10-12T18:31:30.609Z,38.95
2022-10-12T18:33:59.301Z,38.67
2022-10-12T18:36:27.787Z,39.60
2022-10-12T18:38:56.978Z,40.42
2022-10-12T18:41:27.002Z,40.95
2022-10-12T18:43:59.760Z,40.22
2022-10-12T18:46:32.361Z,45.72
2022-10-12T18:49:05.045Z,49.90
2022-10-12T18:51:42.415Z,47.97
2022-10-12T18:54:13.958Z,42.08
2022-10-12T18:56:41.953Z,43.88
2022-10-12T18:59:12.228Z,39.57
2022-10-12T19:01:39.696Z,39.67
2022-10-12T19:04:07.399Z,39.10
2022-10-12T19:06:38.601Z,44.55
2022-10-12T19:09:06.410Z,44.30
2022-10-12T19:11:34.858Z,39.90
2022-10-12T19:14:07.058Z,43.75
2022-10-12T19:16:35.955Z,45.65
2022-10-12T19:19:07.575Z,41.80
2022-10-12T19:21:35.637Z,39.35
2022-10-12T19:24:09.004Z,45.03
2022-10-12T19:26:37.281Z,43.28
2022-10-12T19:29:05.809Z,40.35
2022-10-12T19:34:08.115Z,41.58
2022-10-12T19:36:37.248Z,44.85
2022-10-12T19:39:10.096Z,43.42
2022-10-12T19:41:37.663Z,42.22
2022-10-12T19:44:06.935Z,48.15
2022-10-12T19:46:35.049Z,44.85
2022-10-12T19:49:02.662Z,45.45
2022-10-12T19:51:32.050Z,44.63
2022-10-12T19:54:04.193Z,41.95
2022-10-12T19:56:32.378Z,45.55
2022-10-12T19:59:06.584Z,42.83
2022-10-12T20:01:37.952Z,45.30
2022-10-12T20:04:10.229Z,44.67
2022-10-12T20:06:38.343Z,45.67
2022-10-12T20:09:07.574Z,43.95
2022-10-12T20:11:35.556Z,39.63
2022-10-12T20:14:03.410Z,47.63
2022-10-12T20:16:34.876Z,51.05
2022-10-12T20:19:04.759Z,51.80
2022-10-12T20:21:32.157Z,46.15
2022-10-12T20:23:59.602Z,50.85
2022-10-12T20:26:27.220Z,52.53
2022-10-12T20:28:55.632Z,43.87
2022-10-12T20:31:25.599Z,48.78
2022-10-12T20:33:56.292Z,47.42
2022-10-12T20:36:32.519Z,46.38
2022-10-12T20:39:00.680Z,48.50
2022-10-12T20:41:28.655Z,49.13
2022-10-12T20:43:58.297Z,49.22
2022-10-12T20:46:26.769Z,45.60
2022-10-12T20:51:36.128Z,47.55
2022-10-12T20:54:05.740Z,46.25
2022-10-12T20:56:34.017Z,46.25
2022-10-12T20:59:03.268Z,49.92
2022-10-12T21:01:31.691Z,50.17
2022-10-12T21:03:59.057Z,56.35
2022-10-12T21:06:26.928Z,48.97
2022-10-12T21:08:57.400Z,48.58
